createdAt,value
2019-05-16T00:00:24.278Z,17.00
2019-05-16T00:02:53.752Z,18.60
2019-05-16T00:05:23.229Z,17.80
2019-05-16T00:07:52.711Z,16.87
2019-05-16T00:10:22.279Z,17.37
2019-05-16T00:12:53.500Z,20.23
2019-05-16T00:15:22.975Z,18.10
2019-05-16T00:17:52.470Z,15.23
2019-05-16T00:20:21.979Z,17.73
2019-05-16T00:22:51.509Z,16.30
2019-05-16T00:25:21.001Z,17.80
2019-05-16T00:27:50.473Z,21.37
2019-05-16T00:30:20.126Z,20.10
2019-05-16T00:32:49.662Z,15.70
2019-05-16T00:35:19.170Z,14.87
2019-05-16T00:37:48.690Z,16.03
2019-05-16T00:40:18.868Z,15.60
2019-05-16T00:42:49.327Z,17.30
2019-05-16T00:45:18.988Z,16.37
2019-05-16T00:47:48.671Z,18.27
2019-05-16T00:50:18.597Z,16.37
2019-05-16T00:52:48.784Z,13.07
2019-05-16T00:55:18.387Z,16.80
2019-05-16T00:57:50.090Z,13.00
2019-05-16T01:00:23.142Z,15.90
2019-05-16T01:02:52.678Z,11.97
2019-05-16T01:05:22.114Z,10.53
2019-05-16T01:07:51.612Z,10.80
2019-05-16T01:10:21.128Z,12.33
2019-05-16T01:12:50.656Z,11.37
2019-05-16T01:15:20.222Z,10.40
2019-05-16T01:17:49.725Z,11.17
2019-05-16T01:20:19.475Z,11.43
2019-05-16T01:22:49.259Z,10.33
2019-05-16T01:25:19.557Z,9.80
2019-05-16T01:27:49.381Z,14.10
2019-05-16T01:30:18.921Z,12.10
2019-05-16T01:32:49.234Z,10.53
2019-05-16T01:35:19.013Z,11.30
2019-05-16T01:37:48.955Z,11.33
2019-05-16T01:40:19.031Z,11.90
2019-05-16T01:42:49.065Z,12.20
2019-05-16T01:45:19.043Z,12.17
2019-05-16T01:47:48.683Z,12.57
2019-05-16T01:50:18.388Z,12.47
2019-05-16T01:52:48.749Z,11.23
2019-05-16T01:55:18.764Z,10.87
2019-05-16T01:57:48.378Z,13.73
2019-05-16T02:00:24.763Z,12.70
2019-05-16T02:02:49.520Z,11.07
2019-05-16T02:05:19.005Z,11.57
2019-05-16T02:07:48.447Z,10.70
2019-05-16T02:10:18.460Z,9.23
2019-05-16T02:12:49.057Z,9.40
2019-05-16T02:15:18.846Z,9.23
2019-05-16T02:17:48.664Z,9.93
2019-05-16T02:20:18.392Z,9.17
2019-05-16T02:22:48.324Z,9.33
2019-05-16T02:25:18.678Z,9.00
2019-05-16T02:27:48.897Z,8.17
2019-05-16T02:30:21.770Z,9.83
2019-05-16T02:32:52.334Z,10.30
2019-05-16T02:35:21.191Z,9.13
2019-05-16T02:37:51.669Z,9.87
2019-05-16T02:40:23.064Z,8.73
2019-05-16T02:42:56.008Z,9.17
2019-05-16T02:45:24.759Z,8.33
2019-05-16T02:47:54.344Z,8.30
2019-05-16T02:50:23.850Z,8.27
2019-05-16T02:52:53.492Z,9.60
2019-05-16T02:55:22.994Z,8.57
2019-05-16T02:57:52.500Z,8.90
2019-05-16T03:00:36.752Z,11.50
2019-05-16T03:03:06.972Z,7.97
2019-05-16T03:05:36.537Z,8.03
2019-05-16T03:08:06.062Z,7.60
2019-05-16T03:10:35.921Z,7.13
2019-05-16T03:13:05.435Z,6.80
2019-05-16T03:15:34.964Z,8.77
2019-05-16T03:18:04.790Z,7.40
2019-05-16T03:20:35.044Z,8.60
2019-05-16T03:23:04.571Z,8.57
2019-05-16T03:25:34.077Z,11.80
2019-05-16T03:28:03.561Z,8.37
2019-05-16T03:30:35.151Z,9.03
2019-05-16T03:33:05.792Z,8.97
2019-05-16T03:35:35.571Z,8.83
2019-05-16T03:38:05.931Z,7.93
2019-05-16T03:40:37.014Z,10.70
2019-05-16T03:43:06.540Z,8.00
2019-05-16T03:45:36.028Z,8.47
2019-05-16T03:48:05.523Z,8.87
2019-05-16T03:50:35.006Z,8.80
2019-05-16T03:53:04.610Z,8.80
2019-05-16T03:55:34.109Z,9.17
2019-05-16T03:58:03.596Z,9.70
2019-05-16T04:00:54.401Z,11.60
2019-05-16T04:03:28.219Z,9.80
2019-05-16T04:05:55.289Z,10.37
2019-05-16T04:08:25.792Z,11.77
2019-05-16T04:10:55.388Z,9.50
2019-05-16T04:13:24.903Z,10.97
2019-05-16T04:15:54.424Z,9.67
2019-05-16T04:18:23.881Z,9.77
2019-05-16T04:20:53.371Z,9.97
2019-05-16T04:23:23.017Z,10.23
2019-05-16T04:25:53.039Z,11.50
2019-05-16T04:28:23.150Z,12.93
2019-05-16T04:30:52.787Z,11.57
2019-05-16T04:33:22.774Z,10.97
2019-05-16T04:35:53.262Z,11.70
2019-05-16T04:38:35.063Z,11.37
2019-05-16T04:40:54.261Z,11.20
2019-05-16T04:43:23.798Z,11.57
2019-05-16T04:45:53.356Z,10.53
2019-05-16T04:48:23.270Z,11.23
2019-05-16T04:50:52.999Z,10.10
2019-05-16T04:53:22.594Z,10.43
2019-05-16T04:55:52.489Z,11.07
2019-05-16T04:58:23.597Z,14.20
2019-05-16T05:00:53.367Z,10.17
2019-05-16T05:03:22.948Z,12.37
2019-05-16T05:05:52.486Z,10.50
2019-05-16T05:08:22.688Z,12.53
2019-05-16T05:10:52.434Z,14.03
2019-05-16T05:13:22.670Z,10.60
2019-05-16T05:15:52.332Z,11.53
2019-05-16T05:18:21.938Z,11.27
2019-05-16T05:20:52.675Z,11.03
2019-05-16T05:23:22.460Z,11.70
2019-05-16T05:25:51.982Z,11.50
2019-05-16T05:28:21.633Z,10.10
2019-05-16T05:30:51.128Z,10.77
2019-05-16T05:33:21.376Z,9.43
2019-05-16T05:35:51.243Z,11.17
2019-05-16T05:38:21.638Z,11.83
2019-05-16T05:40:51.843Z,12.77
2019-05-16T05:43:21.946Z,11.07
2019-05-16T05:45:51.808Z,14.17
2019-05-16T05:48:22.056Z,11.83
2019-05-16T05:50:51.797Z,11.33
2019-05-16T05:53:21.382Z,11.53
2019-05-16T05:55:51.702Z,8.73
2019-05-16T05:58:21.718Z,8.50
2019-05-16T06:00:52.196Z,9.50
2019-05-16T06:03:23.005Z,8.17
2019-05-16T06:05:52.849Z,10.27
2019-05-16T06:08:22.383Z,10.23
2019-05-16T06:10:51.904Z,10.77
2019-05-16T06:13:21.389Z,12.30
2019-05-16T06:15:51.399Z,11.20
2019-05-16T06:18:21.011Z,12.37
2019-05-16T06:20:51.217Z,8.70
2019-05-16T06:23:21.257Z,12.70
2019-05-16T06:25:51.102Z,8.20
2019-05-16T06:28:21.263Z,10.77
2019-05-16T06:30:52.000Z,8.83
2019-05-16T06:33:21.778Z,10.57
2019-05-16T06:35:51.663Z,9.73
2019-05-16T06:38:21.499Z,8.93
2019-05-16T06:40:52.747Z,8.43
2019-05-16T06:43:22.221Z,10.93
2019-05-16T06:45:51.765Z,10.37
2019-05-16T06:48:21.681Z,9.20
2019-05-16T06:50:51.956Z,9.27
2019-05-16T06:53:21.555Z,9.10
2019-05-16T06:55:51.020Z,9.33
2019-05-16T06:58:22.203Z,9.67
2019-05-16T07:00:52.706Z,9.40
2019-05-16T07:03:22.377Z,14.23
2019-05-16T07:05:51.841Z,10.20
2019-05-16T07:08:21.376Z,9.23
2019-05-16T07:10:51.229Z,13.23
2019-05-16T07:13:20.774Z,9.07
2019-05-16T07:15:50.479Z,9.03
2019-05-16T07:18:20.773Z,10.30
2019-05-16T07:20:51.390Z,9.10
2019-05-16T07:23:21.411Z,9.40
2019-05-16T07:25:51.039Z,9.00
2019-05-16T07:28:21.198Z,10.77
2019-05-16T07:30:50.849Z,8.57
2019-05-16T07:33:21.370Z,9.27
2019-05-16T07:35:51.570Z,9.50
2019-05-16T07:38:21.216Z,12.90
2019-05-16T07:40:51.423Z,8.97
2019-05-16T07:43:21.202Z,9.07
2019-05-16T07:45:51.608Z,13.87
2019-05-16T07:48:22.156Z,8.30
2019-05-16T07:50:51.771Z,13.80
2019-05-16T07:53:21.698Z,16.40
2019-05-16T07:55:51.396Z,12.17
2019-05-16T07:58:22.125Z,7.20
2019-05-16T08:00:58.396Z,33.40
2019-05-16T08:03:23.082Z,22.70
2019-05-16T08:05:52.529Z,8.90
2019-05-16T08:08:24.379Z,9.43
2019-05-16T08:10:53.268Z,9.33
2019-05-16T08:13:22.722Z,8.13
2019-05-16T08:15:52.186Z,5.77
2019-05-16T08:18:21.824Z,6.80
2019-05-16T08:20:52.719Z,7.60
2019-05-16T08:23:22.912Z,7.80
2019-05-16T08:25:52.790Z,7.93
2019-05-16T08:28:22.344Z,10.07
2019-05-16T08:30:53.022Z,12.63
2019-05-16T08:33:22.788Z,10.13
2019-05-16T08:35:52.390Z,10.67
2019-05-16T08:38:22.111Z,12.50
2019-05-16T08:43:23.353Z,14.83
2019-05-16T08:45:52.798Z,20.80
2019-05-16T08:48:23.347Z,18.77
2019-05-16T08:50:54.765Z,13.93
2019-05-16T08:53:24.718Z,14.13
2019-05-16T08:55:54.245Z,14.30
2019-05-16T08:58:23.716Z,12.53
2019-05-16T09:00:56.327Z,11.47
2019-05-16T09:03:24.641Z,11.03
2019-05-16T09:05:54.101Z,12.20
2019-05-16T09:08:23.631Z,13.17
2019-05-16T09:11:09.329Z,15.17
2019-05-16T09:13:24.353Z,11.63
2019-05-16T09:15:53.811Z,11.03
2019-05-16T09:18:23.321Z,11.90
2019-05-16T09:18:30.613Z,11.53
2019-05-16T09:20:52.920Z,12.63
2019-05-16T09:23:22.407Z,11.97
2019-05-16T09:25:51.900Z,13.67
2019-05-16T09:28:21.477Z,13.07
2019-05-16T09:30:51.011Z,15.63
2019-05-16T09:33:20.498Z,13.77
2019-05-16T09:35:49.996Z,13.83
2019-05-16T09:38:23.657Z,12.90
2019-05-16T09:40:50.691Z,11.97
2019-05-16T09:43:20.172Z,11.90
2019-05-16T09:45:49.762Z,15.07
2019-05-16T09:48:19.268Z,14.47
2019-05-16T09:50:48.922Z,13.27
2019-05-16T09:53:18.524Z,17.97
2019-05-16T09:55:47.975Z,15.07
2019-05-16T09:58:18.481Z,13.70
2019-05-16T10:00:48.170Z,11.43
2019-05-16T10:03:22.316Z,11.67
2019-05-16T10:05:48.982Z,11.57
2019-05-16T10:08:18.513Z,11.97
2019-05-16T10:10:48.009Z,11.90
2019-05-16T10:13:18.466Z,18.57
2019-05-16T10:15:48.341Z,20.63
2019-05-16T10:18:18.012Z,15.73
2019-05-16T10:20:47.549Z,13.77
2019-05-16T10:23:18.067Z,20.20
2019-05-16T10:25:48.219Z,14.23
2019-05-16T10:28:20.167Z,13.50
2019-05-16T10:30:50.234Z,15.37
2019-05-16T10:33:19.987Z,13.73
2019-05-16T10:35:49.480Z,12.67
2019-05-16T10:38:18.977Z,18.63
2019-05-16T10:40:48.592Z,15.87
2019-05-16T10:43:18.111Z,11.83
2019-05-16T10:45:47.635Z,11.83
2019-05-16T10:48:17.756Z,13.13
2019-05-16T10:50:47.951Z,11.87
2019-05-16T10:53:52.295Z,12.30
2019-05-16T10:55:48.784Z,14.63
2019-05-16T10:58:34.780Z,12.03
2019-05-16T11:01:11.270Z,12.13
2019-05-16T11:03:20.782Z,13.33
2019-05-16T11:06:02.999Z,16.50
2019-05-16T11:08:21.492Z,12.50
2019-05-16T11:10:51.064Z,13.83
2019-05-16T11:13:20.646Z,12.03
2019-05-16T11:15:50.215Z,13.23
2019-05-16T11:18:19.766Z,12.43
2019-05-16T11:20:49.678Z,24.33
2019-05-16T11:23:23.288Z,14.80
2019-05-16T11:25:50.648Z,15.73
2019-05-16T11:28:20.155Z,18.50
2019-05-16T11:30:49.992Z,17.87
2019-05-16T11:33:19.639Z,19.10
2019-05-16T11:35:49.159Z,21.93
2019-05-16T11:38:18.680Z,25.73
2019-05-16T11:40:48.319Z,24.63
2019-05-16T11:43:21.416Z,20.07
2019-05-16T11:45:49.137Z,23.57
2019-05-16T11:48:18.777Z,20.57
2019-05-16T11:50:48.353Z,18.27
2019-05-16T11:53:17.805Z,10.90
2019-05-16T11:55:54.442Z,8.93
2019-05-16T11:58:18.711Z,7.73
2019-05-16T12:00:48.675Z,7.77
2019-05-16T12:03:18.206Z,9.97
2019-05-16T12:05:48.615Z,7.70
2019-05-16T12:08:18.146Z,6.70
2019-05-16T12:10:47.694Z,5.20
2019-05-16T12:13:27.556Z,6.87
2019-05-16T12:15:48.456Z,5.90
2019-05-16T12:18:17.923Z,6.90
2019-05-16T12:20:47.467Z,5.50
2019-05-16T12:23:17.322Z,5.23
2019-05-16T12:25:47.595Z,4.77
2019-05-16T12:28:17.234Z,4.60
2019-05-16T12:30:47.229Z,6.90
2019-05-16T12:33:18.725Z,4.67
2019-05-16T12:35:48.231Z,3.70
2019-05-16T12:38:17.721Z,3.50
2019-05-16T12:40:48.042Z,4.27
2019-05-16T12:43:18.192Z,3.20
2019-05-16T12:45:47.865Z,3.00
2019-05-16T12:48:20.214Z,3.07
2019-05-16T12:50:48.641Z,2.67
2019-05-16T12:53:18.110Z,2.60
2019-05-16T12:55:47.903Z,3.43
2019-05-16T12:58:24.882Z,2.73
2019-05-16T13:00:57.916Z,3.13
2019-05-16T13:03:20.080Z,3.07
2019-05-16T13:05:49.608Z,6.40
2019-05-16T13:08:19.049Z,3.53
2019-05-16T13:10:48.605Z,4.50
2019-05-16T13:13:18.090Z,4.73
2019-05-16T13:15:47.874Z,4.10
2019-05-16T13:18:17.330Z,3.80
2019-05-16T13:20:47.037Z,5.00
2019-05-16T13:23:18.171Z,7.17
2019-05-16T13:25:48.336Z,6.17
2019-05-16T13:28:18.516Z,5.03
2019-05-16T13:30:48.169Z,5.07
2019-05-16T13:33:17.939Z,5.30
2019-05-16T13:35:49.123Z,5.37
2019-05-16T13:38:18.645Z,6.63
2019-05-16T13:40:48.207Z,7.00
2019-05-16T13:43:17.831Z,6.00
2019-05-16T13:45:47.514Z,6.60
2019-05-16T13:48:17.399Z,6.67
2019-05-16T13:50:47.529Z,8.03
2019-05-16T13:53:17.176Z,5.87
2019-05-16T13:55:46.869Z,5.50
2019-05-16T13:58:17.882Z,4.97
2019-05-16T14:00:48.215Z,5.17
2019-05-16T14:03:18.097Z,4.20
2019-05-16T14:05:48.012Z,4.23
2019-05-16T14:08:17.464Z,4.77
2019-05-16T14:10:48.801Z,4.77
2019-05-16T14:13:18.344Z,4.87
2019-05-16T14:15:47.860Z,6.30
2019-05-16T14:18:17.771Z,5.80
2019-05-16T14:20:47.699Z,6.27
2019-05-16T14:23:17.861Z,7.60
2019-05-16T14:25:48.432Z,7.80
2019-05-16T14:28:17.994Z,7.80
2019-05-16T14:30:47.566Z,6.97
2019-05-16T14:33:17.356Z,7.60
2019-05-16T14:35:47.434Z,5.73
2019-05-16T14:38:17.552Z,5.00
2019-05-16T14:40:50.172Z,6.20
2019-05-16T14:43:18.799Z,6.23
2019-05-16T14:45:48.323Z,6.93
2019-05-16T14:48:18.523Z,6.43
2019-05-16T14:50:48.132Z,6.43
2019-05-16T14:53:18.086Z,7.63
2019-05-16T14:55:47.873Z,8.40
2019-05-16T14:58:17.332Z,8.73
2019-05-16T15:00:49.212Z,8.47
2019-05-16T15:03:19.922Z,9.00
2019-05-16T15:05:49.443Z,10.07
2019-05-16T15:08:19.034Z,9.40
2019-05-16T15:10:48.720Z,9.90
2019-05-16T15:13:18.238Z,8.67
2019-05-16T15:15:50.577Z,7.57
2019-05-16T15:18:20.185Z,9.07
2019-05-16T15:20:49.717Z,8.93
2019-05-16T15:23:19.229Z,9.93
2019-05-16T15:25:48.741Z,9.90
2019-05-16T15:28:18.226Z,8.27
2019-05-16T15:30:47.814Z,10.20
2019-05-16T15:33:19.737Z,10.00
2019-05-16T15:35:57.821Z,9.80
2019-05-16T15:38:36.515Z,10.67
2019-05-16T15:41:08.299Z,9.80
2019-05-16T15:43:37.658Z,9.77
2019-05-16T15:46:08.534Z,8.60
2019-05-16T15:48:38.371Z,8.53
2019-05-16T15:51:11.850Z,9.30
2019-05-16T15:53:41.467Z,8.47
2019-05-16T15:56:10.995Z,8.67
2019-05-16T15:58:40.585Z,8.27
2019-05-16T16:01:10.240Z,8.93
2019-05-16T16:03:39.801Z,8.47
2019-05-16T16:06:09.404Z,8.67
2019-05-16T16:08:40.112Z,9.27
2019-05-16T16:11:09.746Z,8.83
2019-05-16T16:13:39.913Z,9.40
2019-05-16T16:16:10.805Z,8.63
2019-05-16T16:18:40.599Z,9.17
2019-05-16T16:21:10.501Z,7.83
2019-05-16T16:23:40.161Z,7.67
2019-05-16T16:26:09.833Z,7.30
2019-05-16T16:28:40.570Z,7.83
2019-05-16T16:31:10.156Z,6.60
2019-05-16T16:33:41.697Z,8.73
2019-05-16T16:36:11.263Z,7.73
2019-05-16T16:38:41.023Z,8.03
2019-05-16T16:41:11.609Z,8.00
2019-05-16T16:43:41.263Z,8.40
2019-05-16T16:46:13.617Z,7.13
2019-05-16T16:48:42.106Z,7.10
2019-05-16T16:51:12.975Z,7.83
2019-05-16T16:53:42.531Z,6.67
2019-05-16T16:56:12.479Z,7.57
2019-05-16T16:58:41.970Z,8.00
2019-05-16T17:01:11.538Z,7.43
2019-05-16T17:03:41.156Z,7.50
2019-05-16T17:06:10.749Z,6.80
2019-05-16T17:08:41.377Z,8.17
2019-05-16T17:11:11.024Z,9.27
2019-05-16T17:13:40.742Z,7.37
2019-05-16T17:16:22.055Z,8.13
2019-05-16T17:18:41.806Z,8.67
2019-05-16T17:21:11.622Z,6.47
2019-05-16T17:23:42.505Z,6.57
2019-05-16T17:26:13.569Z,6.40
2019-05-16T17:28:46.668Z,6.17
2019-05-16T17:31:16.999Z,6.50
2019-05-16T17:33:47.536Z,6.07
2019-05-16T17:36:17.335Z,6.20
2019-05-16T17:38:47.396Z,6.10
2019-05-16T17:41:16.991Z,6.63
2019-05-16T17:43:46.998Z,5.80
2019-05-16T17:46:16.584Z,6.60
2019-05-16T17:48:46.814Z,9.23
2019-05-16T17:51:16.929Z,6.47
2019-05-16T17:53:47.399Z,6.87
2019-05-16T17:56:17.312Z,8.57
2019-05-16T17:58:46.763Z,10.50
2019-05-16T18:01:22.613Z,7.40
2019-05-16T18:03:52.139Z,8.90
2019-05-16T18:06:21.646Z,10.37
2019-05-16T18:08:51.164Z,7.97
2019-05-16T18:11:20.623Z,10.73
2019-05-16T18:13:50.183Z,8.40
2019-05-16T18:16:19.664Z,7.93
2019-05-16T18:18:49.147Z,9.13
2019-05-16T18:21:18.611Z,9.17
2019-05-16T18:23:48.078Z,8.63
2019-05-16T18:26:17.596Z,8.37
2019-05-16T18:28:47.093Z,7.47
2019-05-16T18:31:17.294Z,5.73
2019-05-16T18:33:47.114Z,5.43
2019-05-16T18:36:17.055Z,5.70
2019-05-16T18:38:46.796Z,7.40
2019-05-16T18:41:16.694Z,5.17
2019-05-16T18:43:47.288Z,5.97
2019-05-16T18:46:16.879Z,7.57
2019-05-16T18:48:47.146Z,7.07
2019-05-16T18:51:16.843Z,8.00
2019-05-16T18:53:46.518Z,7.13
2019-05-16T18:56:16.840Z,9.10
2019-05-16T18:58:46.803Z,7.07
2019-05-16T19:01:17.563Z,7.20
2019-05-16T19:03:49.045Z,6.30
2019-05-16T19:06:18.668Z,7.07
2019-05-16T19:08:48.188Z,9.87
2019-05-16T19:11:17.778Z,7.40
2019-05-16T19:13:47.602Z,8.60
2019-05-16T19:16:17.260Z,7.00
2019-05-16T19:18:46.793Z,7.40
2019-05-16T19:21:16.868Z,7.83
2019-05-16T19:23:46.515Z,8.37
2019-05-16T19:26:16.727Z,7.13
2019-05-16T19:28:47.670Z,7.73
2019-05-16T19:31:17.304Z,8.87
2019-05-16T19:33:48.766Z,7.90
2019-05-16T19:36:17.979Z,7.60
2019-05-16T19:38:47.483Z,7.10
2019-05-16T19:41:24.790Z,7.00
2019-05-16T19:43:57.215Z,7.33
2019-05-16T19:46:27.328Z,6.93
2019-05-16T19:48:58.278Z,7.93
2019-05-16T19:51:29.266Z,9.67
2019-05-16T19:53:59.124Z,12.13
2019-05-16T19:56:31.324Z,7.00
2019-05-16T19:59:01.970Z,7.80
2019-05-16T20:01:31.654Z,9.63
2019-05-16T20:04:01.714Z,8.40
2019-05-16T20:06:31.429Z,8.77
2019-05-16T20:09:01.459Z,9.13
2019-05-16T20:11:31.197Z,9.70
2019-05-16T20:14:00.851Z,10.07
2019-05-16T20:16:30.452Z,9.20
2019-05-16T20:18:59.988Z,9.37
2019-05-16T20:21:29.989Z,9.93
2019-05-16T20:23:59.664Z,9.83
2019-05-16T20:26:29.338Z,9.73
2019-05-16T20:28:59.497Z,11.50
2019-05-16T20:31:30.919Z,11.50
2019-05-16T20:34:00.654Z,10.67
2019-05-16T20:36:31.788Z,10.57
2019-05-16T20:39:01.299Z,8.87
2019-05-16T20:41:30.796Z,8.43
2019-05-16T20:44:00.305Z,8.20
2019-05-16T20:46:30.838Z,8.43
2019-05-16T20:49:00.324Z,8.30
2019-05-16T20:51:29.809Z,7.60
2019-05-16T20:53:59.336Z,8.07
2019-05-16T20:56:28.884Z,8.13
2019-05-16T20:58:58.368Z,8.73
2019-05-16T21:01:27.828Z,8.07
2019-05-16T21:03:57.418Z,8.63
2019-05-16T21:06:26.951Z,9.17
2019-05-16T21:11:44.425Z,9.10
2019-05-16T21:14:16.450Z,9.97
2019-05-16T21:16:46.513Z,9.47
2019-05-16T21:19:17.428Z,9.20
2019-05-16T21:21:47.143Z,9.03
2019-05-16T21:24:16.792Z,9.67
2019-05-16T21:26:46.284Z,9.13
2019-05-16T21:29:16.480Z,10.47
2019-05-16T21:31:47.356Z,10.37
2019-05-16T21:34:19.187Z,10.10
2019-05-16T21:36:48.202Z,10.37
2019-05-16T21:39:17.858Z,9.43
2019-05-16T21:41:47.406Z,9.90
2019-05-16T21:44:17.201Z,10.20
2019-05-16T21:46:47.077Z,10.50
2019-05-16T21:49:19.520Z,9.80
2019-05-16T21:51:47.933Z,11.37
2019-05-16T21:54:17.468Z,12.63
2019-05-16T21:56:46.996Z,12.03
2019-05-16T21:59:16.550Z,10.77
2019-05-16T22:01:47.310Z,10.73
2019-05-16T22:04:17.036Z,10.60
2019-05-16T22:06:47.500Z,10.73
2019-05-16T22:09:17.269Z,11.07
2019-05-16T22:11:46.841Z,12.40
2019-05-16T22:14:19.251Z,10.43
2019-05-16T22:16:48.787Z,10.90
2019-05-16T22:19:18.437Z,11.80
2019-05-16T22:21:47.904Z,10.97
2019-05-16T22:24:17.422Z,10.77
2019-05-16T22:26:47.405Z,11.60
2019-05-16T22:29:17.146Z,10.87
2019-05-16T22:31:47.157Z,10.83
2019-05-16T22:34:17.042Z,12.20
2019-05-16T22:36:49.249Z,11.60
2019-05-16T22:39:17.841Z,13.80
2019-05-16T22:41:47.350Z,11.10
2019-05-16T22:44:17.633Z,11.57
2019-05-16T22:46:47.360Z,11.40
2019-05-16T22:49:17.101Z,11.07
2019-05-16T22:51:46.575Z,11.43
2019-05-16T22:54:17.214Z,10.90
2019-05-16T22:56:46.868Z,11.60
2019-05-16T22:59:16.688Z,11.50
2019-05-16T23:01:46.293Z,11.70
2019-05-16T23:04:16.750Z,11.80
2019-05-16T23:06:46.424Z,11.30
2019-05-16T23:09:16.422Z,12.37
2019-05-16T23:11:46.115Z,12.13
2019-05-16T23:14:17.071Z,12.50
2019-05-16T23:16:46.703Z,11.90
2019-05-16T23:19:17.152Z,11.70
2019-05-16T23:21:47.506Z,12.50
2019-05-16T23:24:17.450Z,11.90
2019-05-16T23:26:47.133Z,12.10
2019-05-16T23:29:17.033Z,12.20
2019-05-16T23:31:47.186Z,12.00
2019-05-16T23:34:18.740Z,11.77
2019-05-16T23:36:48.210Z,11.83
2019-05-16T23:39:20.720Z,11.80
2019-05-16T23:41:50.266Z,11.80
2019-05-16T23:44:19.745Z,11.93
2019-05-16T23:46:49.290Z,12.10
2019-05-16T23:49:18.880Z,11.83
2019-05-16T23:51:48.359Z,13.67
2019-05-16T23:54:17.866Z,11.53
2019-05-16T23:56:47.398Z,12.60
2019-05-16T23:59:17.279Z,12.70
